sensor_id;sensor_type;location;lat;lon;timestamp;P1;durP1;ratioP1;P2;durP2;ratioP2
74614;SDS011;63121;51.458;-0.110;2022-12-07T00:03:38;10.10;;;3.40;;
74614;SDS011;63121;51.458;-0.110;2022-12-07T00:06:05;9.43;;;3.00;;
74614;SDS011;63121;51.458;-0.110;2022-12-07T00:11:02;9.82;;;3.03;;
74614;SDS011;63121;51.458;-0.110;2022-12-07T00:13:28;10.20;;;3.05;;
74614;SDS011;63121;51.458;-0.110;2022-12-07T00:15:54;10.75;;;3.20;;
74614;SDS011;63121;51.458;-0.110;2022-12-07T00:18:20;8.43;;;2.77;;
74614;SDS011;63121;51.458;-0.110;2022-12-07T00:20:46;8.15;;;2.67;;
74614;SDS011;63121;51.458;-0.110;2022-12-07T00:23:11;11.63;;;2.85;;
74614;SDS011;63121;51.458;-0.110;2022-12-07T00:25:36;8.07;;;2.40;;
74614;SDS011;63121;51.458;-0.110;2022-12-07T00:28:02;13.93;;;2.75;;
74614;SDS011;63121;51.458;-0.110;2022-12-07T00:30:28;12.82;;;3.88;;
74614;SDS011;63121;51.458;-0.110;2022-12-07T00:32:54;12.47;;;3.20;;
74614;SDS011;63121;51.458;-0.110;2022-12-07T00:35:19;9.67;;;2.67;;
74614;SDS011;63121;51.458;-0.110;2022-12-07T00:37:44;11.50;;;3.00;;
74614;SDS011;63121;51.458;-0.110;2022-12-07T00:40:10;11.37;;;3.40;;
74614;SDS011;63121;51.458;-0.110;2022-12-07T00:42:36;9.65;;;2.38;;
74614;SDS011;63121;51.458;-0.110;2022-12-07T00:45:01;7.87;;;2.80;;
74614;SDS011;63121;51.458;-0.110;2022-12-07T00:47:26;8.38;;;2.13;;
74614;SDS011;63121;51.458;-0.110;2022-12-07T00:49:52;9.50;;;2.87;;
74614;SDS011;63121;51.458;-0.110;2022-12-07T00:52:17;10.33;;;3.03;;
74614;SDS011;63121;51.458;-0.110;2022-12-07T00:54:42;9.37;;;2.60;;
74614;SDS011;63121;51.458;-0.110;2022-12-07T00:57:08;11.17;;;2.80;;
74614;SDS011;63121;51.458;-0.110;2022-12-07T00:59:33;8.52;;;2.85;;
74614;SDS011;63121;51.458;-0.110;2022-12-07T01:01:58;9.57;;;2.95;;
74614;SDS011;63121;51.458;-0.110;2022-12-07T01:04:24;10.67;;;3.00;;
74614;SDS011;63121;51.458;-0.110;2022-12-07T01:06:49;8.82;;;2.65;;
74614;SDS011;63121;51.458;-0.110;2022-12-07T01:09:14;10.27;;;2.80;;
74614;SDS011;63121;51.458;-0.110;2022-12-07T01:11:40;10.65;;;2.70;;
74614;SDS011;63121;51.458;-0.110;2022-12-07T01:14:05;9.53;;;2.87;;
74614;SDS011;63121;51.458;-0.110;2022-12-07T01:16:31;9.25;;;2.90;;
74614;SDS011;63121;51.458;-0.110;2022-12-07T01:18:58;10.40;;;3.30;;
74614;SDS011;63121;51.458;-0.110;2022-12-07T01:21:26;9.65;;;3.03;;
74614;SDS011;63121;51.458;-0.110;2022-12-07T01:23:59;11.00;;;3.22;;
74614;SDS011;63121;51.458;-0.110;2022-12-07T01:26:25;8.07;;;2.92;;
74614;SDS011;63121;51.458;-0.110;2022-12-07T01:28:51;7.15;;;2.17;;
74614;SDS011;63121;51.458;-0.110;2022-12-07T01:31:23;6.38;;;1.80;;
74614;SDS011;63121;51.458;-0.110;2022-12-07T01:33:51;10.82;;;3.28;;
74614;SDS011;63121;51.458;-0.110;2022-12-07T01:36:19;9.30;;;3.35;;
74614;SDS011;63121;51.458;-0.110;2022-12-07T01:39:00;11.20;;;3.65;;
74614;SDS011;63121;51.458;-0.110;2022-12-07T01:41:31;8.35;;;3.08;;
74614;SDS011;63121;51.458;-0.110;2022-12-07T01:46:58;7.57;;;2.58;;
74614;SDS011;63121;51.458;-0.110;2022-12-07T01:49:45;6.85;;;2.33;;
74614;SDS011;63121;51.458;-0.110;2022-12-07T01:52:15;7.22;;;2.58;;
74614;SDS011;63121;51.458;-0.110;2022-12-07T01:54:46;9.07;;;3.05;;
74614;SDS011;63121;51.458;-0.110;2022-12-07T01:57:14;11.30;;;3.05;;
74614;SDS011;63121;51.458;-0.110;2022-12-07T01:59:42;12.95;;;3.22;;
74614;SDS011;63121;51.458;-0.110;2022-12-07T02:02:18;8.68;;;2.90;;
74614;SDS011;63121;51.458;-0.110;2022-12-07T02:04:47;10.57;;;3.15;;
74614;SDS011;63121;51.458;-0.110;2022-12-07T02:07:12;8.20;;;2.87;;
74614;SDS011;63121;51.458;-0.110;2022-12-07T02:09:38;7.80;;;2.85;;
74614;SDS011;63121;51.458;-0.110;2022-12-07T02:12:03;9.80;;;3.20;;
74614;SDS011;63121;51.458;-0.110;2022-12-07T02:14:29;12.10;;;3.45;;
74614;SDS011;63121;51.458;-0.110;2022-12-07T02:20:03;8.07;;;2.47;;
74614;SDS011;63121;51.458;-0.110;2022-12-07T02:23:04;8.48;;;2.50;;
74614;SDS011;63121;51.458;-0.110;2022-12-07T02:28:26;9.38;;;2.97;;
74614;SDS011;63121;51.458;-0.110;2022-12-07T02:30:57;10.07;;;2.97;;
74614;SDS011;63121;51.458;-0.110;2022-12-07T02:36:04;5.13;;;2.00;;
74614;SDS011;63121;51.458;-0.110;2022-12-07T02:38:35;8.02;;;2.95;;
74614;SDS011;63121;51.458;-0.110;2022-12-07T02:44:09;7.32;;;2.53;;
74614;SDS011;63121;51.458;-0.110;2022-12-07T02:46:40;8.98;;;3.35;;
74614;SDS011;63121;51.458;-0.110;2022-12-07T02:49:08;6.05;;;1.65;;
74614;SDS011;63121;51.458;-0.110;2022-12-07T02:51:38;12.07;;;3.33;;
74614;SDS011;63121;51.458;-0.110;2022-12-07T02:54:13;12.02;;;3.70;;
74614;SDS011;63121;51.458;-0.110;2022-12-07T03:10:19;10.25;;;3.08;;
74614;SDS011;63121;51.458;-0.110;2022-12-07T03:13:09;7.13;;;2.08;;
74614;SDS011;63121;51.458;-0.110;2022-12-07T03:15:46;8.50;;;3.13;;
74614;SDS011;63121;51.458;-0.110;2022-12-07T03:18:15;9.95;;;3.17;;
74614;SDS011;63121;51.458;-0.110;2022-12-07T03:20:43;8.63;;;2.67;;
74614;SDS011;63121;51.458;-0.110;2022-12-07T03:23:11;10.38;;;3.55;;
74614;SDS011;63121;51.458;-0.110;2022-12-07T03:25:40;11.43;;;3.50;;
74614;SDS011;63121;51.458;-0.110;2022-12-07T03:28:12;10.13;;;3.47;;
74614;SDS011;63121;51.458;-0.110;2022-12-07T03:42:05;10.38;;;4.10;;
74614;SDS011;63121;51.458;-0.110;2022-12-07T03:44:32;11.30;;;3.30;;
74614;SDS011;63121;51.458;-0.110;2022-12-07T03:47:18;13.18;;;3.22;;
74614;SDS011;63121;51.458;-0.110;2022-12-07T03:50:02;12.35;;;3.13;;
74614;SDS011;63121;51.458;-0.110;2022-12-07T03:55:54;10.70;;;3.72;;
74614;SDS011;63121;51.458;-0.110;2022-12-07T03:58:22;10.40;;;3.35;;
74614;SDS011;63121;51.458;-0.110;2022-12-07T04:00:50;10.60;;;3.35;;
74614;SDS011;63121;51.458;-0.110;2022-12-07T04:03:16;9.02;;;3.15;;
74614;SDS011;63121;51.458;-0.110;2022-12-07T04:05:41;7.82;;;2.70;;
74614;SDS011;63121;51.458;-0.110;2022-12-07T04:08:08;10.85;;;3.58;;
74614;SDS011;63121;51.458;-0.110;2022-12-07T04:10:33;8.02;;;3.15;;
74614;SDS011;63121;51.458;-0.110;2022-12-07T04:12:58;11.13;;;3.33;;
74614;SDS011;63121;51.458;-0.110;2022-12-07T04:15:24;9.20;;;3.75;;
74614;SDS011;63121;51.458;-0.110;2022-12-07T04:17:49;11.70;;;3.70;;
74614;SDS011;63121;51.458;-0.110;2022-12-07T04:20:15;10.02;;;3.50;;
74614;SDS011;63121;51.458;-0.110;2022-12-07T04:22:41;11.27;;;3.60;;
74614;SDS011;63121;51.458;-0.110;2022-12-07T04:25:06;8.10;;;2.97;;
74614;SDS011;63121;51.458;-0.110;2022-12-07T04:27:32;9.05;;;3.30;;
74614;SDS011;63121;51.458;-0.110;2022-12-07T04:29:57;8.75;;;3.33;;
74614;SDS011;63121;51.458;-0.110;2022-12-07T04:32:23;10.23;;;3.07;;
74614;SDS011;63121;51.458;-0.110;2022-12-07T04:34:49;8.98;;;3.17;;
74614;SDS011;63121;51.458;-0.110;2022-12-07T04:37:14;7.38;;;2.67;;
74614;SDS011;63121;51.458;-0.110;2022-12-07T04:39:40;9.57;;;3.20;;
74614;SDS011;63121;51.458;-0.110;2022-12-07T04:42:05;8.48;;;3.13;;
74614;SDS011;63121;51.458;-0.110;2022-12-07T04:44:31;9.38;;;2.88;;
74614;SDS011;63121;51.458;-0.110;2022-12-07T04:46:57;9.95;;;3.10;;
74614;SDS011;63121;51.458;-0.110;2022-12-07T04:49:22;10.07;;;3.40;;
74614;SDS011;63121;51.458;-0.110;2022-12-07T04:51:49;10.48;;;3.10;;
74614;SDS011;63121;51.458;-0.110;2022-12-07T04:54:14;22.02;;;2.88;;
74614;SDS011;63121;51.458;-0.110;2022-12-07T04:56:41;6.28;;;2.05;;
74614;SDS011;63121;51.458;-0.110;2022-12-07T04:59:07;7.72;;;3.00;;
74614;SDS011;63121;51.458;-0.110;2022-12-07T05:01:32;9.98;;;3.05;;
74614;SDS011;63121;51.458;-0.110;2022-12-07T05:03:58;7.75;;;2.33;;
74614;SDS011;63121;51.458;-0.110;2022-12-07T05:06:24;11.75;;;3.58;;
74614;SDS011;63121;51.458;-0.110;2022-12-07T05:08:50;5.38;;;1.85;;
74614;SDS011;63121;51.458;-0.110;2022-12-07T05:11:16;9.65;;;2.65;;
74614;SDS011;63121;51.458;-0.110;2022-12-07T05:14:02;8.93;;;2.55;;
74614;SDS011;63121;51.458;-0.110;2022-12-07T05:16:29;8.45;;;2.80;;
74614;SDS011;63121;51.458;-0.110;2022-12-07T05:18:54;10.43;;;2.90;;
74614;SDS011;63121;51.458;-0.110;2022-12-07T05:21:20;7.10;;;2.25;;
74614;SDS011;63121;51.458;-0.110;2022-12-07T05:23:45;8.15;;;2.63;;
74614;SDS011;63121;51.458;-0.110;2022-12-07T05:26:11;7.82;;;2.50;;
74614;SDS011;63121;51.458;-0.110;2022-12-07T05:28:36;7.53;;;2.37;;
74614;SDS011;63121;51.458;-0.110;2022-12-07T05:31:02;10.70;;;3.00;;
74614;SDS011;63121;51.458;-0.110;2022-12-07T05:33:28;9.55;;;2.58;;
74614;SDS011;63121;51.458;-0.110;2022-12-07T05:35:53;10.63;;;2.75;;
74614;SDS011;63121;51.458;-0.110;2022-12-07T05:38:18;9.23;;;3.13;;
74614;SDS011;63121;51.458;-0.110;2022-12-07T05:40:44;9.50;;;3.00;;
74614;SDS011;63121;51.458;-0.110;2022-12-07T05:43:10;10.37;;;2.60;;
74614;SDS011;63121;51.458;-0.110;2022-12-07T05:45:35;8.05;;;2.47;;
74614;SDS011;63121;51.458;-0.110;2022-12-07T05:48:01;11.43;;;2.83;;
74614;SDS011;63121;51.458;-0.110;2022-12-07T05:50:26;8.55;;;2.75;;
74614;SDS011;63121;51.458;-0.110;2022-12-07T05:52:53;11.07;;;2.67;;
74614;SDS011;63121;51.458;-0.110;2022-12-07T05:55:18;9.45;;;2.60;;
74614;SDS011;63121;51.458;-0.110;2022-12-07T05:57:44;9.02;;;2.90;;
74614;SDS011;63121;51.458;-0.110;2022-12-07T06:00:29;9.98;;;2.75;;
74614;SDS011;63121;51.458;-0.110;2022-12-07T06:02:54;8.68;;;2.47;;
74614;SDS011;63121;51.458;-0.110;2022-12-07T06:05:20;9.07;;;2.50;;
74614;SDS011;63121;51.458;-0.110;2022-12-07T06:07:45;7.17;;;2.47;;
74614;SDS011;63121;51.458;-0.110;2022-12-07T06:10:10;7.40;;;2.87;;
74614;SDS011;63121;51.458;-0.110;2022-12-07T06:12:36;8.27;;;2.60;;
74614;SDS011;63121;51.458;-0.110;2022-12-07T06:15:03;8.55;;;3.00;;
74614;SDS011;63121;51.458;-0.110;2022-12-07T06:17:29;8.25;;;2.60;;
74614;SDS011;63121;51.458;-0.110;2022-12-07T06:19:54;11.25;;;2.65;;
74614;SDS011;63121;51.458;-0.110;2022-12-07T06:22:20;10.63;;;3.08;;
74614;SDS011;63121;51.458;-0.110;2022-12-07T06:24:45;9.88;;;2.90;;
74614;SDS011;63121;51.458;-0.110;2022-12-07T06:27:10;8.05;;;2.47;;
74614;SDS011;63121;51.458;-0.110;2022-12-07T06:29:36;7.95;;;3.20;;
74614;SDS011;63121;51.458;-0.110;2022-12-07T06:32:01;5.90;;;1.90;;
74614;SDS011;63121;51.458;-0.110;2022-12-07T06:34:27;9.57;;;2.85;;
74614;SDS011;63121;51.458;-0.110;2022-12-07T06:36:53;8.85;;;2.47;;
74614;SDS011;63121;51.458;-0.110;2022-12-07T06:39:24;9.63;;;2.40;;
74614;SDS011;63121;51.458;-0.110;2022-12-07T06:41:51;8.43;;;2.42;;
74614;SDS011;63121;51.458;-0.110;2022-12-07T06:44:17;6.82;;;2.42;;
74614;SDS011;63121;51.458;-0.110;2022-12-07T06:46:43;8.68;;;3.05;;
74614;SDS011;63121;51.458;-0.110;2022-12-07T06:49:09;13.23;;;2.95;;
74614;SDS011;63121;51.458;-0.110;2022-12-07T06:51:35;10.98;;;2.47;;
74614;SDS011;63121;51.458;-0.110;2022-12-07T06:54:01;10.55;;;3.10;;
74614;SDS011;63121;51.458;-0.110;2022-12-07T06:56:30;10.45;;;3.30;;
74614;SDS011;63121;51.458;-0.110;2022-12-07T06:58:55;9.63;;;2.97;;
74614;SDS011;63121;51.458;-0.110;2022-12-07T07:01:20;9.13;;;2.65;;
74614;SDS011;63121;51.458;-0.110;2022-12-07T07:03:46;9.55;;;2.90;;
74614;SDS011;63121;51.458;-0.110;2022-12-07T07:06:12;9.48;;;3.08;;
74614;SDS011;63121;51.458;-0.110;2022-12-07T07:08:38;9.77;;;3.35;;
74614;SDS011;63121;51.458;-0.110;2022-12-07T07:11:05;8.90;;;3.20;;
74614;SDS011;63121;51.458;-0.110;2022-12-07T07:13:31;8.05;;;2.72;;
74614;SDS011;63121;51.458;-0.110;2022-12-07T07:16:01;10.82;;;3.08;;
74614;SDS011;63121;51.458;-0.110;2022-12-07T07:18:27;8.82;;;3.17;;
74614;SDS011;63121;51.458;-0.110;2022-12-07T07:20:53;8.85;;;3.15;;
74614;SDS011;63121;51.458;-0.110;2022-12-07T07:23:19;12.02;;;3.40;;
74614;SDS011;63121;51.458;-0.110;2022-12-07T07:25:45;9.18;;;3.08;;
74614;SDS011;63121;51.458;-0.110;2022-12-07T07:28:11;8.98;;;2.88;;
74614;SDS011;63121;51.458;-0.110;2022-12-07T07:30:37;13.93;;;3.28;;
74614;SDS011;63121;51.458;-0.110;2022-12-07T07:33:03;8.10;;;2.33;;
74614;SDS011;63121;51.458;-0.110;2022-12-07T07:37:55;8.52;;;2.58;;
74614;SDS011;63121;51.458;-0.110;2022-12-07T07:40:21;9.32;;;3.03;;
74614;SDS011;63121;51.458;-0.110;2022-12-07T07:42:56;13.13;;;3.58;;
74614;SDS011;63121;51.458;-0.110;2022-12-07T07:45:22;8.98;;;2.53;;
74614;SDS011;63121;51.458;-0.110;2022-12-07T07:47:49;10.95;;;2.50;;
74614;SDS011;63121;51.458;-0.110;2022-12-07T07:50:15;9.77;;;2.83;;
74614;SDS011;63121;51.458;-0.110;2022-12-07T07:52:41;9.00;;;2.70;;
74614;SDS011;63121;51.458;-0.110;2022-12-07T07:55:07;9.30;;;3.35;;
74614;SDS011;63121;51.458;-0.110;2022-12-07T07:57:34;9.90;;;3.08;;
74614;SDS011;63121;51.458;-0.110;2022-12-07T08:00:00;8.90;;;2.97;;
74614;SDS011;63121;51.458;-0.110;2022-12-07T08:02:26;10.25;;;3.58;;
74614;SDS011;63121;51.458;-0.110;2022-12-07T08:04:54;12.20;;;3.47;;
74614;SDS011;63121;51.458;-0.110;2022-12-07T08:07:20;10.63;;;3.28;;
74614;SDS011;63121;51.458;-0.110;2022-12-07T08:09:45;9.53;;;3.10;;
74614;SDS011;63121;51.458;-0.110;2022-12-07T08:12:10;11.00;;;2.93;;
74614;SDS011;63121;51.458;-0.110;2022-12-07T08:14:36;8.33;;;2.40;;
74614;SDS011;63121;51.458;-0.110;2022-12-07T08:17:01;10.57;;;3.00;;
74614;SDS011;63121;51.458;-0.110;2022-12-07T08:19:26;9.23;;;2.80;;
74614;SDS011;63121;51.458;-0.110;2022-12-07T08:21:52;7.77;;;2.63;;
74614;SDS011;63121;51.458;-0.110;2022-12-07T08:24:17;9.73;;;2.88;;
74614;SDS011;63121;51.458;-0.110;2022-12-07T08:26:43;10.27;;;2.58;;
74614;SDS011;63121;51.458;-0.110;2022-12-07T08:29:08;8.57;;;3.10;;
74614;SDS011;63121;51.458;-0.110;2022-12-07T08:31:34;10.00;;;2.92;;
74614;SDS011;63121;51.458;-0.110;2022-12-07T08:33:59;9.32;;;3.38;;
74614;SDS011;63121;51.458;-0.110;2022-12-07T08:36:25;13.03;;;3.50;;
74614;SDS011;63121;51.458;-0.110;2022-12-07T08:38:50;10.13;;;3.17;;
74614;SDS011;63121;51.458;-0.110;2022-12-07T08:41:16;11.43;;;3.80;;
74614;SDS011;63121;51.458;-0.110;2022-12-07T08:43:42;9.60;;;3.17;;
74614;SDS011;63121;51.458;-0.110;2022-12-07T08:48:55;8.43;;;2.65;;
74614;SDS011;63121;51.458;-0.110;2022-12-07T08:51:26;20.77;;;5.13;;
74614;SDS011;63121;51.458;-0.110;2022-12-07T08:53:52;28.83;;;5.97;;
74614;SDS011;63121;51.458;-0.110;2022-12-07T08:56:20;12.02;;;3.45;;
74614;SDS011;63121;51.458;-0.110;2022-12-07T08:58:46;12.70;;;3.58;;
74614;SDS011;63121;51.458;-0.110;2022-12-07T09:01:13;12.68;;;4.18;;
74614;SDS011;63121;51.458;-0.110;2022-12-07T09:03:38;10.23;;;3.78;;
74614;SDS011;63121;51.458;-0.110;2022-12-07T09:06:04;10.38;;;3.72;;
74614;SDS011;63121;51.458;-0.110;2022-12-07T09:08:31;11.35;;;4.32;;
74614;SDS011;63121;51.458;-0.110;2022-12-07T09:10:59;24.50;;;4.75;;
74614;SDS011;63121;51.458;-0.110;2022-12-07T09:13:25;10.45;;;3.80;;
74614;SDS011;63121;51.458;-0.110;2022-12-07T09:15:50;10.30;;;3.23;;
74614;SDS011;63121;51.458;-0.110;2022-12-07T09:18:16;17.05;;;4.63;;
74614;SDS011;63121;51.458;-0.110;2022-12-07T09:20:41;10.73;;;3.38;;
74614;SDS011;63121;51.458;-0.110;2022-12-07T09:23:06;10.43;;;3.43;;
74614;SDS011;63121;51.458;-0.110;2022-12-07T09:25:32;17.65;;;3.55;;
74614;SDS011;63121;51.458;-0.110;2022-12-07T09:27:58;12.07;;;3.88;;
74614;SDS011;63121;51.458;-0.110;2022-12-07T09:30:24;10.77;;;4.03;;
74614;SDS011;63121;51.458;-0.110;2022-12-07T09:32:52;14.15;;;2.95;;
74614;SDS011;63121;51.458;-0.110;2022-12-07T09:35:18;9.90;;;3.47;;
74614;SDS011;63121;51.458;-0.110;2022-12-07T09:37:43;11.53;;;3.73;;
74614;SDS011;63121;51.458;-0.110;2022-12-07T09:40:09;10.55;;;3.40;;
74614;SDS011;63121;51.458;-0.110;2022-12-07T09:42:38;15.02;;;3.80;;
74614;SDS011;63121;51.458;-0.110;2022-12-07T09:45:19;10.07;;;3.38;;
74614;SDS011;63121;51.458;-0.110;2022-12-07T09:47:48;8.65;;;3.00;;
74614;SDS011;63121;51.458;-0.110;2022-12-07T09:50:16;11.23;;;3.25;;
74614;SDS011;63121;51.458;-0.110;2022-12-07T09:52:44;10.40;;;2.90;;
74614;SDS011;63121;51.458;-0.110;2022-12-07T09:55:14;12.80;;;3.65;;
74614;SDS011;63121;51.458;-0.110;2022-12-07T09:57:42;12.23;;;3.30;;
74614;SDS011;63121;51.458;-0.110;2022-12-07T10:00:16;10.65;;;3.35;;
74614;SDS011;63121;51.458;-0.110;2022-12-07T10:02:54;17.30;;;4.50;;
74614;SDS011;63121;51.458;-0.110;2022-12-07T10:06:05;9.38;;;3.45;;
74614;SDS011;63121;51.458;-0.110;2022-12-07T10:08:14;10.82;;;3.25;;
74614;SDS011;63121;51.458;-0.110;2022-12-07T10:10:42;10.88;;;4.05;;
74614;SDS011;63121;51.458;-0.110;2022-12-07T10:13:12;8.98;;;3.72;;
74614;SDS011;63121;51.458;-0.110;2022-12-07T10:18:18;11.63;;;2.63;;
74614;SDS011;63121;51.458;-0.110;2022-12-07T10:21:00;13.90;;;2.70;;
74614;SDS011;63121;51.458;-0.110;2022-12-07T10:23:36;11.10;;;2.50;;
74614;SDS011;63121;51.458;-0.110;2022-12-07T10:26:19;11.57;;;2.00;;
74614;SDS011;63121;51.458;-0.110;2022-12-07T10:29:23;9.48;;;2.08;;
74614;SDS011;63121;51.458;-0.110;2022-12-07T10:31:58;12.73;;;2.20;;
74614;SDS011;63121;51.458;-0.110;2022-12-07T10:34:30;7.60;;;2.00;;
74614;SDS011;63121;51.458;-0.110;2022-12-07T10:44:50;9.35;;;1.70;;
74614;SDS011;63121;51.458;-0.110;2022-12-07T10:50:31;15.57;;;2.45;;
74614;SDS011;63121;51.458;-0.110;2022-12-07T11:11:35;8.00;;;1.55;;
74614;SDS011;63121;51.458;-0.110;2022-12-07T11:22:37;7.90;;;2.00;;
74614;SDS011;63121;51.458;-0.110;2022-12-07T11:25:21;10.98;;;2.10;;
74614;SDS011;63121;51.458;-0.110;2022-12-07T11:28:01;8.02;;;1.92;;
74614;SDS011;63121;51.458;-0.110;2022-12-07T11:30:42;8.68;;;1.80;;
74614;SDS011;63121;51.458;-0.110;2022-12-07T11:33:33;5.45;;;1.42;;
74614;SDS011;63121;51.458;-0.110;2022-12-07T11:36:17;10.60;;;2.38;;
74614;SDS011;63121;51.458;-0.110;2022-12-07T11:42:26;7.38;;;1.80;;
74614;SDS011;63121;51.458;-0.110;2022-12-07T11:45:14;8.52;;;1.92;;
74614;SDS011;63121;51.458;-0.110;2022-12-07T11:47:54;6.88;;;1.63;;
74614;SDS011;63121;51.458;-0.110;2022-12-07T11:50:37;7.40;;;1.80;;
74614;SDS011;63121;51.458;-0.110;2022-12-07T11:56:19;6.38;;;1.98;;
74614;SDS011;63121;51.458;-0.110;2022-12-07T11:58:51;8.63;;;2.17;;
74614;SDS011;63121;51.458;-0.110;2022-12-07T12:04:13;6.55;;;1.80;;
74614;SDS011;63121;51.458;-0.110;2022-12-07T12:06:48;7.55;;;1.80;;
74614;SDS011;63121;51.458;-0.110;2022-12-07T12:09:18;8.65;;;2.08;;
74614;SDS011;63121;51.458;-0.110;2022-12-07T12:20:42;11.57;;;1.88;;
74614;SDS011;63121;51.458;-0.110;2022-12-07T12:23:22;5.60;;;1.60;;
74614;SDS011;63121;51.458;-0.110;2022-12-07T12:25:59;6.68;;;1.50;;
74614;SDS011;63121;51.458;-0.110;2022-12-07T12:28:41;4.57;;;1.45;;
74614;SDS011;63121;51.458;-0.110;2022-12-07T12:31:37;9.07;;;2.17;;
74614;SDS011;63121;51.458;-0.110;2022-12-07T12:34:10;7.80;;;1.77;;
74614;SDS011;63121;51.458;-0.110;2022-12-07T12:36:57;5.97;;;1.45;;
74614;SDS011;63121;51.458;-0.110;2022-12-07T12:39:23;7.28;;;1.83;;
74614;SDS011;63121;51.458;-0.110;2022-12-07T12:41:55;8.02;;;2.10;;
74614;SDS011;63121;51.458;-0.110;2022-12-07T12:46:52;4.67;;;1.30;;
74614;SDS011;63121;51.458;-0.110;2022-12-07T12:54:22;8.15;;;1.83;;
74614;SDS011;63121;51.458;-0.110;2022-12-07T12:56:54;6.75;;;1.92;;
74614;SDS011;63121;51.458;-0.110;2022-12-07T13:02:05;6.72;;;1.40;;
74614;SDS011;63121;51.458;-0.110;2022-12-07T13:04:48;9.23;;;1.80;;
74614;SDS011;63121;51.458;-0.110;2022-12-07T13:10:20;8.35;;;1.92;;
74614;SDS011;63121;51.458;-0.110;2022-12-07T13:15:35;8.25;;;1.52;;
74614;SDS011;63121;51.458;-0.110;2022-12-07T13:18:03;8.88;;;2.20;;
74614;SDS011;63121;51.458;-0.110;2022-12-07T13:20:48;7.57;;;1.50;;
74614;SDS011;63121;51.458;-0.110;2022-12-07T13:23:16;6.80;;;1.88;;
74614;SDS011;63121;51.458;-0.110;2022-12-07T13:25:48;8.18;;;1.75;;
74614;SDS011;63121;51.458;-0.110;2022-12-07T13:28:18;6.63;;;1.63;;
74614;SDS011;63121;51.458;-0.110;2022-12-07T13:30:46;4.47;;;1.40;;
74614;SDS011;63121;51.458;-0.110;2022-12-07T13:33:19;6.00;;;1.40;;
74614;SDS011;63121;51.458;-0.110;2022-12-07T13:35:45;6.47;;;1.38;;
74614;SDS011;63121;51.458;-0.110;2022-12-07T13:38:22;6.80;;;1.55;;
74614;SDS011;63121;51.458;-0.110;2022-12-07T13:41:10;5.22;;;1.35;;
74614;SDS011;63121;51.458;-0.110;2022-12-07T13:43:44;5.00;;;1.60;;
74614;SDS011;63121;51.458;-0.110;2022-12-07T13:46:12;5.28;;;1.50;;
74614;SDS011;63121;51.458;-0.110;2022-12-07T13:48:48;7.00;;;1.60;;
74614;SDS011;63121;51.458;-0.110;2022-12-07T13:53:48;8.95;;;1.60;;
74614;SDS011;63121;51.458;-0.110;2022-12-07T13:56:15;6.43;;;1.52;;
74614;SDS011;63121;51.458;-0.110;2022-12-07T13:58:41;4.93;;;1.27;;
74614;SDS011;63121;51.458;-0.110;2022-12-07T14:01:07;4.57;;;1.30;;
74614;SDS011;63121;51.458;-0.110;2022-12-07T14:03:33;5.82;;;1.55;;
74614;SDS011;63121;51.458;-0.110;2022-12-07T14:06:12;6.47;;;1.70;;
74614;SDS011;63121;51.458;-0.110;2022-12-07T14:08:40;4.90;;;1.30;;
74614;SDS011;63121;51.458;-0.110;2022-12-07T14:11:07;5.38;;;1.33;;
74614;SDS011;63121;51.458;-0.110;2022-12-07T14:18:41;8.65;;;1.42;;
74614;SDS011;63121;51.458;-0.110;2022-12-07T14:23:35;7.03;;;1.80;;
74614;SDS011;63121;51.458;-0.110;2022-12-07T14:26:20;4.10;;;1.40;;
74614;SDS011;63121;51.458;-0.110;2022-12-07T14:28:46;7.35;;;1.67;;
74614;SDS011;63121;51.458;-0.110;2022-12-07T14:33:39;7.43;;;1.73;;
74614;SDS011;63121;51.458;-0.110;2022-12-07T14:36:08;5.85;;;1.35;;
74614;SDS011;63121;51.458;-0.110;2022-12-07T14:38:34;4.32;;;1.40;;
74614;SDS011;63121;51.458;-0.110;2022-12-07T14:40:59;5.30;;;1.40;;
74614;SDS011;63121;51.458;-0.110;2022-12-07T14:43:44;6.82;;;1.60;;
74614;SDS011;63121;51.458;-0.110;2022-12-07T14:46:09;5.07;;;1.50;;
74614;SDS011;63121;51.458;-0.110;2022-12-07T14:48:34;5.70;;;1.60;;
74614;SDS011;63121;51.458;-0.110;2022-12-07T14:51:00;4.70;;;1.50;;
74614;SDS011;63121;51.458;-0.110;2022-12-07T14:53:28;4.35;;;1.48;;
74614;SDS011;63121;51.458;-0.110;2022-12-07T14:55:58;6.80;;;1.55;;
74614;SDS011;63121;51.458;-0.110;2022-12-07T14:58:23;5.15;;;1.40;;
74614;SDS011;63121;51.458;-0.110;2022-12-07T15:00:49;4.50;;;1.30;;
74614;SDS011;63121;51.458;-0.110;2022-12-07T15:03:14;4.20;;;1.20;;
74614;SDS011;63121;51.458;-0.110;2022-12-07T15:05:40;5.37;;;1.50;;
74614;SDS011;63121;51.458;-0.110;2022-12-07T15:08:05;6.25;;;1.40;;
74614;SDS011;63121;51.458;-0.110;2022-12-07T15:10:32;6.20;;;1.42;;
74614;SDS011;63121;51.458;-0.110;2022-12-07T15:12:59;4.40;;;1.30;;
74614;SDS011;63121;51.458;-0.110;2022-12-07T15:15:49;6.45;;;1.40;;
74614;SDS011;63121;51.458;-0.110;2022-12-07T15:18:16;6.57;;;1.33;;
74614;SDS011;63121;51.458;-0.110;2022-12-07T15:20:43;7.13;;;1.60;;
74614;SDS011;63121;51.458;-0.110;2022-12-07T15:23:09;7.88;;;2.10;;
74614;SDS011;63121;51.458;-0.110;2022-12-07T15:25:34;5.15;;;1.50;;
74614;SDS011;63121;51.458;-0.110;2022-12-07T15:28:00;6.37;;;1.40;;
74614;SDS011;63121;51.458;-0.110;2022-12-07T15:30:25;6.20;;;1.43;;
74614;SDS011;63121;51.458;-0.110;2022-12-07T15:32:51;5.97;;;1.50;;
74614;SDS011;63121;51.458;-0.110;2022-12-07T15:35:17;10.57;;;2.72;;
74614;SDS011;63121;51.458;-0.110;2022-12-07T15:37:43;5.05;;;1.42;;
74614;SDS011;63121;51.458;-0.110;2022-12-07T15:40:08;7.17;;;1.80;;
74614;SDS011;63121;51.458;-0.110;2022-12-07T15:42:35;5.50;;;1.77;;
74614;SDS011;63121;51.458;-0.110;2022-12-07T15:45:01;5.90;;;1.42;;
74614;SDS011;63121;51.458;-0.110;2022-12-07T15:47:31;5.85;;;1.50;;
74614;SDS011;63121;51.458;-0.110;2022-12-07T15:49:58;8.60;;;2.10;;
74614;SDS011;63121;51.458;-0.110;2022-12-07T15:52:24;9.98;;;1.80;;
74614;SDS011;63121;51.458;-0.110;2022-12-07T15:54:49;5.73;;;1.40;;
74614;SDS011;63121;51.458;-0.110;2022-12-07T15:57:14;5.77;;;1.50;;
74614;SDS011;63121;51.458;-0.110;2022-12-07T15:59:40;6.68;;;1.45;;
74614;SDS011;63121;51.458;-0.110;2022-12-07T16:02:05;6.65;;;1.73;;
74614;SDS011;63121;51.458;-0.110;2022-12-07T16:04:31;5.73;;;1.43;;
74614;SDS011;63121;51.458;-0.110;2022-12-07T16:06:56;8.55;;;2.05;;
74614;SDS011;63121;51.458;-0.110;2022-12-07T16:09:22;6.85;;;1.40;;
74614;SDS011;63121;51.458;-0.110;2022-12-07T16:11:47;4.68;;;1.35;;
74614;SDS011;63121;51.458;-0.110;2022-12-07T16:14:15;5.75;;;1.58;;
74614;SDS011;63121;51.458;-0.110;2022-12-07T16:16:40;9.70;;;1.75;;
74614;SDS011;63121;51.458;-0.110;2022-12-07T16:19:06;7.05;;;1.63;;
74614;SDS011;63121;51.458;-0.110;2022-12-07T16:21:33;6.95;;;1.80;;
74614;SDS011;63121;51.458;-0.110;2022-12-07T16:23:59;5.45;;;1.40;;
74614;SDS011;63121;51.458;-0.110;2022-12-07T16:26:25;5.38;;;1.42;;
74614;SDS011;63121;51.458;-0.110;2022-12-07T16:28:51;6.55;;;1.40;;
74614;SDS011;63121;51.458;-0.110;2022-12-07T16:31:18;6.97;;;1.70;;
74614;SDS011;63121;51.458;-0.110;2022-12-07T16:33:46;5.88;;;1.58;;
74614;SDS011;63121;51.458;-0.110;2022-12-07T16:36:13;5.22;;;1.48;;
74614;SDS011;63121;51.458;-0.110;2022-12-07T16:38:41;6.82;;;1.50;;
74614;SDS011;63121;51.458;-0.110;2022-12-07T16:41:07;5.95;;;1.70;;
74614;SDS011;63121;51.458;-0.110;2022-12-07T16:43:32;5.32;;;1.52;;
74614;SDS011;63121;51.458;-0.110;2022-12-07T16:45:58;8.30;;;1.75;;
74614;SDS011;63121;51.458;-0.110;2022-12-07T16:48:24;9.48;;;1.95;;
74614;SDS011;63121;51.458;-0.110;2022-12-07T16:50:49;5.30;;;1.38;;
74614;SDS011;63121;51.458;-0.110;2022-12-07T16:53:15;6.73;;;2.00;;
74614;SDS011;63121;51.458;-0.110;2022-12-07T16:55:42;4.57;;;1.45;;
74614;SDS011;63121;51.458;-0.110;2022-12-07T16:58:09;6.97;;;1.67;;
74614;SDS011;63121;51.458;-0.110;2022-12-07T17:00:35;7.90;;;1.63;;